This is the latest recevied weather packets stored in our database for station/object KB4MOX. If no packets are shown the sender has not sent any weather packets the latest 1 day(s).
| Time | Temp. | Humidity | Pressure | Rain* | Wind** | Luminosity | Snow |
|---|---|---|---|---|---|---|---|
| 1778013329 | 27.78° C | 41% | 1014.3 hPa | 0 mm | 1.34 m/s, 190° | 600 W/m² | - |
| 1778013026 | 27.78° C | 41% | 1014.4 hPa | 0 mm | 0.45 m/s, 75° | 117 W/m² | - |
| 1778012722 | 27.22° C | 44% | 1014.4 hPa | 0 mm | 0.45 m/s, 273° | 692 W/m² | - |
| 1778012418 | 27.78° C | 41% | 1014.5 hPa | 0 mm | 0.45 m/s, 106° | 340 W/m² | - |
| 1778012115 | 28.89° C | 40% | 1014.5 hPa | 0 mm | 1.34 m/s, 184° | 176 W/m² | - |
| 1778011812 | 28.89° C | 40% | 1014.5 hPa | 0 mm | 0 m/s | 116 W/m² | - |
| 1778011510 | 28.33° C | 40% | 1014.7 hPa | 0 mm | 0.89 m/s, 95° | 521 W/m² | - |
| 1778011207 | 28.89° C | 39% | 1014.7 hPa | 0 mm | 0.45 m/s, 47° | 171 W/m² | - |
| 1778010903 | 28.89° C | 37% | 1014.9 hPa | 0 mm | 0.89 m/s, 77° | 665 W/m² | - |
| 1778010600 | 28.33° C | 38% | 1015 hPa | 0 mm | 1.34 m/s, 128° | 549 W/m² | - |
| 1778010298 | 28.33° C | 41% | 1014.8 hPa | 0 mm | 0.45 m/s, 85° | 721 W/m² | - |
| 1778010001 | 28.33° C | 37% | 1015.1 hPa | 0 mm | 0.89 m/s, 26° | 335 W/m² | - |
| 1778009696 | 27.78° C | 40% | 1015 hPa | 0 mm | 0.45 m/s, 181° | 803 W/m² | - |
| 1778009393 | 27.78° C | 39% | 1015.2 hPa | 0 mm | 1.34 m/s, 313° | 734 W/m² | - |
| 1778009091 | 27.78° C | 41% | 1015.5 hPa | 0 mm | 0.45 m/s, 139° | 729 W/m² | - |
| 1778008788 | 27.78° C | 41% | 1015.4 hPa | 0 mm | 0.45 m/s, 105° | 700 W/m² | - |
| 1778008487 | 27.78° C | 41% | 1015.5 hPa | 0 mm | 1.79 m/s, 284° | 697 W/m² | - |
| 1778008183 | 28.89° C | 40% | 1015.5 hPa | 0 mm | 0.89 m/s, 195° | 752 W/m² | - |
| 1778007878 | 28.33° C | 43% | 1015.6 hPa | 0 mm | 0.45 m/s, 80° | 878 W/m² | - |
| 1778007574 | 28.33° C | 42% | 1015.6 hPa | 0 mm | 0.89 m/s, 66° | 722 W/m² | - |
| 1778007272 | 27.78° C | 43% | 1015.8 hPa | 0 mm | 0.89 m/s, 284° | 779 W/m² | - |
| 1778006968 | 27.22° C | 43% | 1015.9 hPa | 0 mm | 0.45 m/s, 101° | 807 W/m² | - |
| 1778006665 | 27.78° C | 42% | 1015.8 hPa | 0 mm | 0.89 m/s, 356° | 796 W/m² | - |
| 1778006356 | 27.22° C | 43% | 1016.1 hPa | 0 mm | 0.45 m/s, 23° | 658 W/m² | - |
| 1778006054 | 27.22° C | 42% | 1016.3 hPa | 0 mm | 1.79 m/s, 118° | 721 W/m² | - |
* Rain latest hour (hover to see other rain measurements)
** Current wind speed in m/s (hover to see current wind gust speed)